sensor_id;sensor_type;location;lat;lon;timestamp;P1;durP1;ratioP1;P2;durP2;ratioP2
76733;SDS011;65660;53.288;14.666;2023-03-01T00:00:23;25.43;;;10.97;;
76733;SDS011;65660;53.288;14.666;2023-03-01T00:05:44;21.03;;;11.03;;
76733;SDS011;65660;53.288;14.666;2023-03-01T00:10:45;24.03;;;11.27;;
76733;SDS011;65660;53.288;14.666;2023-03-01T00:15:45;28.07;;;12.73;;
76733;SDS011;65660;53.288;14.666;2023-03-01T00:20:53;23.07;;;11.83;;
76733;SDS011;65660;53.288;14.666;2023-03-01T00:25:54;25.70;;;12.23;;
76733;SDS011;65660;53.288;14.666;2023-03-01T00:30:55;24.60;;;12.53;;
76733;SDS011;65660;53.288;14.666;2023-03-01T00:35:57;29.30;;;12.23;;
76733;SDS011;65660;53.288;14.666;2023-03-01T00:41:12;22.60;;;11.33;;
76733;SDS011;65660;53.288;14.666;2023-03-01T00:46:15;26.00;;;12.70;;
76733;SDS011;65660;53.288;14.666;2023-03-01T00:51:18;26.77;;;12.83;;
76733;SDS011;65660;53.288;14.666;2023-03-01T00:56:20;26.50;;;12.50;;
76733;SDS011;65660;53.288;14.666;2023-03-01T01:01:23;29.27;;;13.90;;
76733;SDS011;65660;53.288;14.666;2023-03-01T01:06:26;29.30;;;14.33;;
76733;SDS011;65660;53.288;14.666;2023-03-01T01:11:28;23.87;;;12.70;;
76733;SDS011;65660;53.288;14.666;2023-03-01T01:16:29;26.13;;;12.73;;
76733;SDS011;65660;53.288;14.666;2023-03-01T01:21:30;23.27;;;12.87;;
76733;SDS011;65660;53.288;14.666;2023-03-01T01:26:31;30.30;;;13.13;;
76733;SDS011;65660;53.288;14.666;2023-03-01T01:31:33;28.30;;;11.73;;
76733;SDS011;65660;53.288;14.666;2023-03-01T01:36:35;22.23;;;9.17;;
76733;SDS011;65660;53.288;14.666;2023-03-01T01:41:35;23.13;;;10.73;;
76733;SDS011;65660;53.288;14.666;2023-03-01T01:46:36;24.13;;;11.83;;
76733;SDS011;65660;53.288;14.666;2023-03-01T01:51:40;25.97;;;11.50;;
76733;SDS011;65660;53.288;14.666;2023-03-01T01:56:43;22.87;;;11.00;;
76733;SDS011;65660;53.288;14.666;2023-03-01T02:01:48;24.00;;;10.53;;
76733;SDS011;65660;53.288;14.666;2023-03-01T02:06:54;25.00;;;11.03;;
76733;SDS011;65660;53.288;14.666;2023-03-01T02:11:58;28.30;;;12.27;;
76733;SDS011;65660;53.288;14.666;2023-03-01T02:16:59;26.53;;;12.87;;
76733;SDS011;65660;53.288;14.666;2023-03-01T02:22:04;26.70;;;12.30;;
76733;SDS011;65660;53.288;14.666;2023-03-01T02:27:11;23.60;;;10.93;;
76733;SDS011;65660;53.288;14.666;2023-03-01T02:32:12;20.10;;;10.03;;
76733;SDS011;65660;53.288;14.666;2023-03-01T02:37:13;21.63;;;10.83;;
76733;SDS011;65660;53.288;14.666;2023-03-01T02:42:15;23.37;;;10.77;;
76733;SDS011;65660;53.288;14.666;2023-03-01T02:47:18;25.57;;;11.50;;
76733;SDS011;65660;53.288;14.666;2023-03-01T02:57:35;27.37;;;13.10;;
76733;SDS011;65660;53.288;14.666;2023-03-01T03:02:37;32.60;;;14.30;;
76733;SDS011;65660;53.288;14.666;2023-03-01T03:07:40;28.13;;;15.00;;
76733;SDS011;65660;53.288;14.666;2023-03-01T03:12:42;29.53;;;13.80;;
76733;SDS011;65660;53.288;14.666;2023-03-01T03:17:43;30.40;;;14.20;;
76733;SDS011;65660;53.288;14.666;2023-03-01T03:22:48;27.67;;;13.77;;
76733;SDS011;65660;53.288;14.666;2023-03-01T03:27:50;27.97;;;14.87;;
76733;SDS011;65660;53.288;14.666;2023-03-01T03:32:51;24.73;;;13.90;;
76733;SDS011;65660;53.288;14.666;2023-03-01T03:37:52;24.57;;;12.90;;
76733;SDS011;65660;53.288;14.666;2023-03-01T03:42:53;23.43;;;13.13;;
76733;SDS011;65660;53.288;14.666;2023-03-01T03:47:53;24.53;;;12.30;;
76733;SDS011;65660;53.288;14.666;2023-03-01T03:52:53;22.27;;;11.50;;
76733;SDS011;65660;53.288;14.666;2023-03-01T03:57:54;19.90;;;10.53;;
76733;SDS011;65660;53.288;14.666;2023-03-01T04:02:57;23.60;;;10.53;;
76733;SDS011;65660;53.288;14.666;2023-03-01T04:07:58;17.67;;;9.93;;
76733;SDS011;65660;53.288;14.666;2023-03-01T04:12:58;15.33;;;9.30;;
76733;SDS011;65660;53.288;14.666;2023-03-01T04:17:59;18.47;;;10.23;;
76733;SDS011;65660;53.288;14.666;2023-03-01T04:23:10;18.40;;;9.93;;
76733;SDS011;65660;53.288;14.666;2023-03-01T04:28:13;19.43;;;10.33;;
76733;SDS011;65660;53.288;14.666;2023-03-01T04:33:13;19.30;;;10.00;;
76733;SDS011;65660;53.288;14.666;2023-03-01T04:38:13;19.80;;;10.03;;
76733;SDS011;65660;53.288;14.666;2023-03-01T04:43:14;17.77;;;11.07;;
76733;SDS011;65660;53.288;14.666;2023-03-01T04:48:14;23.60;;;11.93;;
76733;SDS011;65660;53.288;14.666;2023-03-01T04:53:15;24.37;;;12.10;;
76733;SDS011;65660;53.288;14.666;2023-03-01T04:58:15;24.80;;;12.47;;
76733;SDS011;65660;53.288;14.666;2023-03-01T05:03:16;26.67;;;13.30;;
76733;SDS011;65660;53.288;14.666;2023-03-01T05:08:16;25.97;;;12.60;;
76733;SDS011;65660;53.288;14.666;2023-03-01T05:13:17;20.83;;;12.60;;
76733;SDS011;65660;53.288;14.666;2023-03-01T05:18:18;23.20;;;12.13;;
76733;SDS011;65660;53.288;14.666;2023-03-01T05:23:18;21.13;;;11.70;;
76733;SDS011;65660;53.288;14.666;2023-03-01T05:28:19;19.97;;;10.77;;
76733;SDS011;65660;53.288;14.666;2023-03-01T05:33:20;21.60;;;11.07;;
76733;SDS011;65660;53.288;14.666;2023-03-01T05:38:21;21.27;;;10.90;;
76733;SDS011;65660;53.288;14.666;2023-03-01T05:43:21;17.67;;;10.77;;
76733;SDS011;65660;53.288;14.666;2023-03-01T05:48:21;19.50;;;9.70;;
76733;SDS011;65660;53.288;14.666;2023-03-01T05:53:22;19.63;;;11.10;;
76733;SDS011;65660;53.288;14.666;2023-03-01T05:58:22;19.87;;;9.90;;
76733;SDS011;65660;53.288;14.666;2023-03-01T06:03:23;17.60;;;10.20;;
76733;SDS011;65660;53.288;14.666;2023-03-01T06:08:23;15.10;;;8.93;;
76733;SDS011;65660;53.288;14.666;2023-03-01T06:13:24;24.97;;;10.30;;
76733;SDS011;65660;53.288;14.666;2023-03-01T06:18:25;17.87;;;9.67;;
76733;SDS011;65660;53.288;14.666;2023-03-01T06:23:25;18.10;;;9.70;;
76733;SDS011;65660;53.288;14.666;2023-03-01T06:28:26;16.60;;;9.97;;
76733;SDS011;65660;53.288;14.666;2023-03-01T06:33:26;19.77;;;10.17;;
76733;SDS011;65660;53.288;14.666;2023-03-01T06:38:27;16.27;;;10.20;;
76733;SDS011;65660;53.288;14.666;2023-03-01T06:43:27;18.37;;;10.17;;
76733;SDS011;65660;53.288;14.666;2023-03-01T06:48:28;17.50;;;11.03;;
76733;SDS011;65660;53.288;14.666;2023-03-01T06:53:28;22.07;;;11.10;;
76733;SDS011;65660;53.288;14.666;2023-03-01T06:58:29;23.40;;;11.63;;
76733;SDS011;65660;53.288;14.666;2023-03-01T07:03:29;24.50;;;14.00;;
76733;SDS011;65660;53.288;14.666;2023-03-01T07:08:30;29.03;;;16.90;;
76733;SDS011;65660;53.288;14.666;2023-03-01T07:13:31;37.03;;;18.83;;
76733;SDS011;65660;53.288;14.666;2023-03-01T07:18:31;37.00;;;18.37;;
76733;SDS011;65660;53.288;14.666;2023-03-01T07:23:32;25.90;;;14.60;;
76733;SDS011;65660;53.288;14.666;2023-03-01T07:28:32;23.47;;;12.40;;
76733;SDS011;65660;53.288;14.666;2023-03-01T07:33:33;25.47;;;11.63;;
76733;SDS011;65660;53.288;14.666;2023-03-01T07:38:33;22.87;;;12.03;;
76733;SDS011;65660;53.288;14.666;2023-03-01T07:43:34;21.80;;;11.97;;
76733;SDS011;65660;53.288;14.666;2023-03-01T07:48:34;19.93;;;10.73;;
76733;SDS011;65660;53.288;14.666;2023-03-01T07:53:35;19.30;;;11.00;;
76733;SDS011;65660;53.288;14.666;2023-03-01T07:58:36;14.27;;;9.10;;
76733;SDS011;65660;53.288;14.666;2023-03-01T08:03:38;13.73;;;7.40;;
76733;SDS011;65660;53.288;14.666;2023-03-01T08:08:38;14.17;;;7.20;;
76733;SDS011;65660;53.288;14.666;2023-03-01T08:13:39;11.80;;;7.23;;
76733;SDS011;65660;53.288;14.666;2023-03-01T08:18:40;11.80;;;7.47;;
76733;SDS011;65660;53.288;14.666;2023-03-01T08:23:42;13.37;;;7.67;;
76733;SDS011;65660;53.288;14.666;2023-03-01T08:28:43;12.43;;;7.23;;
76733;SDS011;65660;53.288;14.666;2023-03-01T08:33:43;10.60;;;6.40;;
76733;SDS011;65660;53.288;14.666;2023-03-01T08:38:44;12.83;;;7.63;;
76733;SDS011;65660;53.288;14.666;2023-03-01T08:43:44;12.47;;;6.87;;
76733;SDS011;65660;53.288;14.666;2023-03-01T08:48:45;12.73;;;7.03;;
76733;SDS011;65660;53.288;14.666;2023-03-01T08:53:46;11.27;;;7.03;;
76733;SDS011;65660;53.288;14.666;2023-03-01T08:58:47;11.93;;;7.13;;
76733;SDS011;65660;53.288;14.666;2023-03-01T09:03:48;12.37;;;7.57;;
76733;SDS011;65660;53.288;14.666;2023-03-01T09:08:49;13.53;;;6.93;;
76733;SDS011;65660;53.288;14.666;2023-03-01T09:13:50;11.83;;;7.17;;
76733;SDS011;65660;53.288;14.666;2023-03-01T09:18:52;12.67;;;7.60;;
76733;SDS011;65660;53.288;14.666;2023-03-01T09:23:55;10.57;;;6.93;;
76733;SDS011;65660;53.288;14.666;2023-03-01T09:28:56;12.47;;;7.23;;
76733;SDS011;65660;53.288;14.666;2023-03-01T09:33:57;10.90;;;6.73;;
76733;SDS011;65660;53.288;14.666;2023-03-01T09:38:57;11.27;;;6.53;;
76733;SDS011;65660;53.288;14.666;2023-03-01T09:49:32;9.30;;;5.67;;
76733;SDS011;65660;53.288;14.666;2023-03-01T09:54:33;10.80;;;6.37;;
76733;SDS011;65660;53.288;14.666;2023-03-01T09:59:40;9.57;;;5.90;;
76733;SDS011;65660;53.288;14.666;2023-03-01T10:09:45;9.53;;;6.00;;
76733;SDS011;65660;53.288;14.666;2023-03-01T10:14:52;9.03;;;6.43;;
76733;SDS011;65660;53.288;14.666;2023-03-01T10:19:55;11.23;;;6.77;;
76733;SDS011;65660;53.288;14.666;2023-03-01T10:25:17;9.87;;;6.20;;
76733;SDS011;65660;53.288;14.666;2023-03-01T10:30:37;13.63;;;7.03;;
76733;SDS011;65660;53.288;14.666;2023-03-01T10:35:39;13.33;;;6.23;;
76733;SDS011;65660;53.288;14.666;2023-03-01T10:40:56;12.73;;;7.10;;
76733;SDS011;65660;53.288;14.666;2023-03-01T10:45:57;8.80;;;6.27;;
76733;SDS011;65660;53.288;14.666;2023-03-01T10:56:10;9.70;;;6.60;;
76733;SDS011;65660;53.288;14.666;2023-03-01T11:11:18;12.13;;;6.90;;
76733;SDS011;65660;53.288;14.666;2023-03-01T11:16:33;13.50;;;8.00;;
76733;SDS011;65660;53.288;14.666;2023-03-01T11:27:44;11.80;;;7.77;;
76733;SDS011;65660;53.288;14.666;2023-03-01T11:43:12;15.33;;;7.80;;
76733;SDS011;65660;53.288;14.666;2023-03-01T12:20:58;9.17;;;5.83;;
76733;SDS011;65660;53.288;14.666;2023-03-01T12:37:13;8.50;;;5.50;;
76733;SDS011;65660;53.288;14.666;2023-03-01T12:53:17;5.90;;;5.13;;
76733;SDS011;65660;53.288;14.666;2023-03-01T13:03:57;7.60;;;5.13;;
76733;SDS011;65660;53.288;14.666;2023-03-01T13:09:20;7.90;;;5.50;;
76733;SDS011;65660;53.288;14.666;2023-03-01T13:14:45;7.37;;;4.97;;
76733;SDS011;65660;53.288;14.666;2023-03-01T13:19:55;8.73;;;5.60;;
76733;SDS011;65660;53.288;14.666;2023-03-01T13:25:11;7.13;;;5.47;;
76733;SDS011;65660;53.288;14.666;2023-03-01T13:35:43;7.50;;;5.77;;
76733;SDS011;65660;53.288;14.666;2023-03-01T13:45:44;9.30;;;5.43;;
76733;SDS011;65660;53.288;14.666;2023-03-01T13:50:54;10.37;;;5.83;;
76733;SDS011;65660;53.288;14.666;2023-03-01T13:56:02;8.83;;;6.00;;
76733;SDS011;65660;53.288;14.666;2023-03-01T14:01:18;150.30;;;50.73;;
76733;SDS011;65660;53.288;14.666;2023-03-01T14:06:25;95.87;;;34.90;;
76733;SDS011;65660;53.288;14.666;2023-03-01T14:22:13;64.17;;;22.57;;
76733;SDS011;65660;53.288;14.666;2023-03-01T14:27:19;8.60;;;5.70;;
76733;SDS011;65660;53.288;14.666;2023-03-01T14:32:20;10.07;;;5.83;;
76733;SDS011;65660;53.288;14.666;2023-03-01T14:37:30;9.43;;;5.80;;
76733;SDS011;65660;53.288;14.666;2023-03-01T14:42:34;8.73;;;6.30;;
76733;SDS011;65660;53.288;14.666;2023-03-01T14:47:35;10.87;;;6.70;;
76733;SDS011;65660;53.288;14.666;2023-03-01T14:52:37;7.10;;;5.80;;
76733;SDS011;65660;53.288;14.666;2023-03-01T14:57:42;8.53;;;6.27;;
76733;SDS011;65660;53.288;14.666;2023-03-01T15:02:43;9.40;;;7.10;;
76733;SDS011;65660;53.288;14.666;2023-03-01T15:07:44;8.33;;;7.00;;
76733;SDS011;65660;53.288;14.666;2023-03-01T15:12:45;8.73;;;7.40;;
76733;SDS011;65660;53.288;14.666;2023-03-01T15:17:48;9.73;;;6.60;;
76733;SDS011;65660;53.288;14.666;2023-03-01T15:22:53;9.17;;;6.23;;
76733;SDS011;65660;53.288;14.666;2023-03-01T15:27:54;9.17;;;7.73;;
76733;SDS011;65660;53.288;14.666;2023-03-01T15:43:39;11.30;;;8.00;;
76733;SDS011;65660;53.288;14.666;2023-03-01T15:48:46;11.10;;;6.03;;
76733;SDS011;65660;53.288;14.666;2023-03-01T15:53:51;12.40;;;9.30;;
76733;SDS011;65660;53.288;14.666;2023-03-01T15:58:52;12.10;;;8.80;;
76733;SDS011;65660;53.288;14.666;2023-03-01T16:03:53;12.90;;;9.13;;
76733;SDS011;65660;53.288;14.666;2023-03-01T16:08:53;14.10;;;8.97;;
76733;SDS011;65660;53.288;14.666;2023-03-01T16:13:54;12.37;;;8.30;;
76733;SDS011;65660;53.288;14.666;2023-03-01T16:18:54;11.07;;;6.83;;
76733;SDS011;65660;53.288;14.666;2023-03-01T16:23:54;10.00;;;6.63;;
76733;SDS011;65660;53.288;14.666;2023-03-01T16:28:55;33.43;;;18.37;;
76733;SDS011;65660;53.288;14.666;2023-03-01T16:33:57;15.70;;;9.60;;
76733;SDS011;65660;53.288;14.666;2023-03-01T16:38:59;20.70;;;12.17;;
76733;SDS011;65660;53.288;14.666;2023-03-01T16:43:59;18.97;;;11.13;;
76733;SDS011;65660;53.288;14.666;2023-03-01T16:49:00;25.60;;;14.40;;
76733;SDS011;65660;53.288;14.666;2023-03-01T16:54:01;18.73;;;10.97;;
76733;SDS011;65660;53.288;14.666;2023-03-01T16:59:01;22.97;;;12.77;;
76733;SDS011;65660;53.288;14.666;2023-03-01T17:04:03;15.53;;;10.90;;
76733;SDS011;65660;53.288;14.666;2023-03-01T17:09:03;14.80;;;9.50;;
76733;SDS011;65660;53.288;14.666;2023-03-01T17:14:04;12.83;;;8.93;;
76733;SDS011;65660;53.288;14.666;2023-03-01T17:19:04;11.27;;;8.00;;
76733;SDS011;65660;53.288;14.666;2023-03-01T17:24:05;12.70;;;9.20;;
76733;SDS011;65660;53.288;14.666;2023-03-01T17:29:05;12.90;;;8.70;;
76733;SDS011;65660;53.288;14.666;2023-03-01T17:34:06;12.00;;;8.80;;
76733;SDS011;65660;53.288;14.666;2023-03-01T17:39:06;12.77;;;8.47;;
76733;SDS011;65660;53.288;14.666;2023-03-01T17:44:07;12.97;;;8.30;;
76733;SDS011;65660;53.288;14.666;2023-03-01T17:49:08;10.27;;;7.47;;
76733;SDS011;65660;53.288;14.666;2023-03-01T17:54:08;10.07;;;7.60;;
76733;SDS011;65660;53.288;14.666;2023-03-01T17:59:09;10.67;;;7.40;;
76733;SDS011;65660;53.288;14.666;2023-03-01T18:04:09;14.63;;;7.73;;
76733;SDS011;65660;53.288;14.666;2023-03-01T18:09:10;12.43;;;9.50;;
76733;SDS011;65660;53.288;14.666;2023-03-01T18:14:10;10.30;;;7.97;;
76733;SDS011;65660;53.288;14.666;2023-03-01T18:19:11;10.03;;;7.33;;
76733;SDS011;65660;53.288;14.666;2023-03-01T18:24:12;16.63;;;11.57;;
76733;SDS011;65660;53.288;14.666;2023-03-01T18:29:12;13.03;;;9.60;;
76733;SDS011;65660;53.288;14.666;2023-03-01T18:34:12;11.27;;;7.10;;
76733;SDS011;65660;53.288;14.666;2023-03-01T18:39:13;17.83;;;10.77;;
76733;SDS011;65660;53.288;14.666;2023-03-01T18:44:14;23.40;;;14.47;;
76733;SDS011;65660;53.288;14.666;2023-03-01T18:49:14;23.17;;;14.63;;
76733;SDS011;65660;53.288;14.666;2023-03-01T18:54:15;25.10;;;14.93;;
76733;SDS011;65660;53.288;14.666;2023-03-01T18:59:15;24.83;;;15.07;;
76733;SDS011;65660;53.288;14.666;2023-03-01T19:04:16;27.73;;;16.10;;
76733;SDS011;65660;53.288;14.666;2023-03-01T19:09:16;28.83;;;15.77;;
76733;SDS011;65660;53.288;14.666;2023-03-01T19:14:18;33.73;;;16.63;;
76733;SDS011;65660;53.288;14.666;2023-03-01T19:19:19;28.10;;;16.17;;
76733;SDS011;65660;53.288;14.666;2023-03-01T19:24:20;30.17;;;16.00;;
76733;SDS011;65660;53.288;14.666;2023-03-01T19:29:20;30.57;;;16.70;;
76733;SDS011;65660;53.288;14.666;2023-03-01T19:34:21;26.03;;;14.77;;
76733;SDS011;65660;53.288;14.666;2023-03-01T19:39:21;30.13;;;16.37;;
76733;SDS011;65660;53.288;14.666;2023-03-01T19:44:22;24.30;;;15.03;;
76733;SDS011;65660;53.288;14.666;2023-03-01T19:49:23;29.00;;;15.53;;
76733;SDS011;65660;53.288;14.666;2023-03-01T19:54:24;29.57;;;16.10;;
76733;SDS011;65660;53.288;14.666;2023-03-01T19:59:24;28.30;;;15.47;;
76733;SDS011;65660;53.288;14.666;2023-03-01T20:04:25;25.97;;;14.63;;
76733;SDS011;65660;53.288;14.666;2023-03-01T20:09:25;23.37;;;13.47;;
76733;SDS011;65660;53.288;14.666;2023-03-01T20:14:26;21.57;;;11.70;;
76733;SDS011;65660;53.288;14.666;2023-03-01T20:19:26;23.07;;;11.50;;
76733;SDS011;65660;53.288;14.666;2023-03-01T20:24:27;24.43;;;12.93;;
76733;SDS011;65660;53.288;14.666;2023-03-01T20:29:28;23.77;;;12.57;;
76733;SDS011;65660;53.288;14.666;2023-03-01T20:34:28;26.33;;;13.47;;
76733;SDS011;65660;53.288;14.666;2023-03-01T20:39:29;28.80;;;14.23;;
76733;SDS011;65660;53.288;14.666;2023-03-01T20:44:29;26.90;;;13.87;;
76733;SDS011;65660;53.288;14.666;2023-03-01T20:49:30;24.87;;;13.20;;
76733;SDS011;65660;53.288;14.666;2023-03-01T20:54:30;29.77;;;14.07;;
76733;SDS011;65660;53.288;14.666;2023-03-01T20:59:31;23.63;;;12.73;;
76733;SDS011;65660;53.288;14.666;2023-03-01T21:04:32;27.07;;;13.53;;
76733;SDS011;65660;53.288;14.666;2023-03-01T21:09:32;27.77;;;14.23;;
76733;SDS011;65660;53.288;14.666;2023-03-01T21:14:33;20.90;;;12.13;;
76733;SDS011;65660;53.288;14.666;2023-03-01T21:19:37;25.00;;;12.40;;
76733;SDS011;65660;53.288;14.666;2023-03-01T21:24:38;26.23;;;12.80;;
76733;SDS011;65660;53.288;14.666;2023-03-01T21:29:39;26.83;;;12.20;;
76733;SDS011;65660;53.288;14.666;2023-03-01T21:34:41;25.03;;;12.67;;
76733;SDS011;65660;53.288;14.666;2023-03-01T21:39:44;24.90;;;12.53;;
76733;SDS011;65660;53.288;14.666;2023-03-01T21:44:44;27.63;;;14.00;;
76733;SDS011;65660;53.288;14.666;2023-03-01T21:49:45;28.43;;;13.30;;
76733;SDS011;65660;53.288;14.666;2023-03-01T21:54:49;23.37;;;13.90;;
76733;SDS011;65660;53.288;14.666;2023-03-01T21:59:50;27.30;;;13.10;;
76733;SDS011;65660;53.288;14.666;2023-03-01T22:04:51;25.50;;;12.63;;
76733;SDS011;65660;53.288;14.666;2023-03-01T22:09:52;24.90;;;13.60;;
76733;SDS011;65660;53.288;14.666;2023-03-01T22:14:53;23.87;;;12.70;;
76733;SDS011;65660;53.288;14.666;2023-03-01T22:19:53;27.67;;;14.50;;
76733;SDS011;65660;53.288;14.666;2023-03-01T22:24:54;26.03;;;13.50;;
76733;SDS011;65660;53.288;14.666;2023-03-01T22:29:54;27.93;;;14.93;;
76733;SDS011;65660;53.288;14.666;2023-03-01T22:34:54;31.77;;;16.20;;
76733;SDS011;65660;53.288;14.666;2023-03-01T22:39:55;30.73;;;16.10;;
76733;SDS011;65660;53.288;14.666;2023-03-01T22:44:55;25.33;;;14.67;;
76733;SDS011;65660;53.288;14.666;2023-03-01T22:49:56;26.17;;;14.53;;
76733;SDS011;65660;53.288;14.666;2023-03-01T22:54:57;30.07;;;14.97;;
76733;SDS011;65660;53.288;14.666;2023-03-01T22:59:57;26.20;;;15.00;;
76733;SDS011;65660;53.288;14.666;2023-03-01T23:04:57;26.47;;;14.27;;
76733;SDS011;65660;53.288;14.666;2023-03-01T23:09:58;28.00;;;15.13;;
76733;SDS011;65660;53.288;14.666;2023-03-01T23:14:58;26.93;;;16.47;;
76733;SDS011;65660;53.288;14.666;2023-03-01T23:19:59;26.73;;;14.03;;
76733;SDS011;65660;53.288;14.666;2023-03-01T23:24:59;27.40;;;13.47;;
76733;SDS011;65660;53.288;14.666;2023-03-01T23:30:00;24.87;;;13.60;;
76733;SDS011;65660;53.288;14.666;2023-03-01T23:35:00;24.60;;;12.37;;
76733;SDS011;65660;53.288;14.666;2023-03-01T23:40:01;25.13;;;12.80;;
76733;SDS011;65660;53.288;14.666;2023-03-01T23:45:02;25.60;;;12.83;;
76733;SDS011;65660;53.288;14.666;2023-03-01T23:50:03;27.03;;;13.43;;
76733;SDS011;65660;53.288;14.666;2023-03-01T23:55:04;26.67;;;13.17;;
